createdAt,value
2023-03-29T00:03:45.813Z,4.20
2023-03-29T00:08:54.188Z,4.80
2023-03-29T00:13:59.830Z,5.30
2023-03-29T00:19:05.724Z,4.50
2023-03-29T00:24:11.629Z,4.90
2023-03-29T00:29:17.117Z,4.40
2023-03-29T00:34:23.716Z,4.60
2023-03-29T00:39:30.664Z,4.80
2023-03-29T00:45:04.496Z,4.20
2023-03-29T00:50:16.498Z,4.60
2023-03-29T00:55:24.605Z,5.20
2023-03-29T01:00:35.233Z,5.10
2023-03-29T01:10:52.195Z,4.50
2023-03-29T01:15:59.068Z,4.90
2023-03-29T01:21:19.491Z,5.10
2023-03-29T01:26:36.957Z,4.70
2023-03-29T01:31:48.561Z,5.20
2023-03-29T01:37:00.809Z,4.60
2023-03-29T01:42:15.618Z,4.80
2023-03-29T01:47:31.221Z,5.30
2023-03-29T01:52:42.291Z,5.00
2023-03-29T01:57:50.412Z,5.30
2023-03-29T02:03:01.286Z,4.70
2023-03-29T02:08:11.077Z,5.00
2023-03-29T02:13:18.129Z,4.20
2023-03-29T02:18:24.806Z,5.00
2023-03-29T02:23:36.767Z,5.20
2023-03-29T02:28:43.358Z,5.90
2023-03-29T02:33:53.469Z,7.10
2023-03-29T02:39:03.947Z,5.90
2023-03-29T02:44:14.389Z,5.20
2023-03-29T02:49:19.935Z,6.10
2023-03-29T02:54:29.985Z,5.90
2023-03-29T02:59:36.497Z,5.80
2023-03-29T03:04:41.962Z,6.20
2023-03-29T03:09:47.933Z,5.80
2023-03-29T03:14:53.617Z,5.90
2023-03-29T03:19:59.867Z,5.50
2023-03-29T03:25:10.199Z,5.90
2023-03-29T03:30:16.764Z,4.60
2023-03-29T03:35:35.030Z,5.90
2023-03-29T03:40:40.682Z,6.10
2023-03-29T03:45:46.262Z,6.60
2023-03-29T03:50:57.214Z,6.40
2023-03-29T03:56:08.880Z,5.50
2023-03-29T04:01:22.697Z,6.60
2023-03-29T04:06:35.280Z,6.20
2023-03-29T04:12:07.328Z,6.00
2023-03-29T04:17:12.955Z,6.40
2023-03-29T04:22:37.262Z,6.10
2023-03-29T04:27:43.940Z,6.40
2023-03-29T04:33:12.535Z,6.30
2023-03-29T04:38:23.398Z,6.00
2023-03-29T04:43:31.164Z,6.20
2023-03-29T04:48:50.073Z,6.60
2023-03-29T04:53:56.471Z,6.80
2023-03-29T04:59:02.736Z,7.90
2023-03-29T05:04:10.763Z,6.70
2023-03-29T05:09:22.226Z,6.00
2023-03-29T05:14:31.594Z,6.20
2023-03-29T05:19:38.446Z,6.50
2023-03-29T05:24:45.753Z,6.20
2023-03-29T05:29:56.359Z,6.80
2023-03-29T05:35:26.207Z,6.50
2023-03-29T05:40:33.904Z,6.40
2023-03-29T05:45:58.711Z,6.60
2023-03-29T05:51:05.161Z,6.30
2023-03-29T05:56:11.813Z,5.40
2023-03-29T06:01:19.010Z,4.90
2023-03-29T06:06:32.641Z,5.50
2023-03-29T06:11:39.568Z,5.00
2023-03-29T06:16:45.277Z,5.60
2023-03-29T06:21:53.763Z,5.50
2023-03-29T06:27:02.522Z,6.00
2023-03-29T06:32:08.633Z,5.80
2023-03-29T06:37:24.182Z,4.20
2023-03-29T06:42:37.411Z,4.00
2023-03-29T06:48:09.457Z,3.90
2023-03-29T06:53:15.859Z,4.80
2023-03-29T06:58:23.385Z,3.60
2023-03-29T07:03:29.365Z,3.50
2023-03-29T07:08:37.452Z,3.70
2023-03-29T07:13:49.156Z,3.90
2023-03-29T07:18:57.537Z,3.20
2023-03-29T07:24:21.412Z,3.50
2023-03-29T07:29:29.182Z,3.60
2023-03-29T07:34:35.713Z,3.30
2023-03-29T07:39:42.213Z,3.50
2023-03-29T07:45:11.367Z,3.30
2023-03-29T07:50:26.453Z,4.00
2023-03-29T07:55:33.818Z,2.70
2023-03-29T08:00:51.444Z,3.00
2023-03-29T08:06:16.004Z,2.60
2023-03-29T08:11:21.854Z,3.10
2023-03-29T08:16:38.339Z,2.90
2023-03-29T08:21:48.311Z,2.50
2023-03-29T08:26:54.613Z,2.70
2023-03-29T08:32:00.221Z,2.50
2023-03-29T08:37:05.836Z,2.20
2023-03-29T08:42:39.052Z,1.60
2023-03-29T08:47:54.378Z,1.60
2023-03-29T08:53:04.643Z,1.50
2023-03-29T08:58:34.549Z,1.90
2023-03-29T09:03:45.148Z,2.10
2023-03-29T09:08:54.864Z,1.70
2023-03-29T09:14:12.760Z,1.70
2023-03-29T09:19:28.283Z,1.10
2023-03-29T09:24:47.212Z,1.50
2023-03-29T09:30:10.194Z,1.40
2023-03-29T09:35:43.365Z,1.40
2023-03-29T09:40:53.409Z,1.50
2023-03-29T09:46:04.536Z,1.40
2023-03-29T09:51:13.131Z,1.60
2023-03-29T09:56:19.516Z,1.50
2023-03-29T10:01:38.805Z,1.30
2023-03-29T10:06:49.561Z,1.60
2023-03-29T10:12:02.254Z,1.60
2023-03-29T10:17:16.798Z,6.90
2023-03-29T10:22:24.707Z,3.30
2023-03-29T10:27:34.607Z,2.60
2023-03-29T10:37:51.931Z,2.50
2023-03-29T10:43:00.690Z,1.40
2023-03-29T10:48:11.710Z,3.20
2023-03-29T10:53:24.859Z,2.00
2023-03-29T10:58:42.673Z,2.00
2023-03-29T11:04:05.762Z,2.10
2023-03-29T11:09:24.210Z,3.40
2023-03-29T11:14:41.185Z,1.50
2023-03-29T11:20:12.527Z,2.00
2023-03-29T11:25:38.377Z,1.50
2023-03-29T11:30:50.161Z,2.10
2023-03-29T11:36:05.356Z,2.50
2023-03-29T11:41:18.621Z,2.10
2023-03-29T11:46:28.807Z,1.70
2023-03-29T11:51:41.439Z,2.00
2023-03-29T11:56:52.663Z,4.30
2023-03-29T12:04:07.202Z,2.10
2023-03-29T12:09:23.908Z,2.50
2023-03-29T12:14:39.051Z,2.20
2023-03-29T12:19:50.347Z,2.20
2023-03-29T12:24:57.690Z,2.30
2023-03-29T12:30:23.963Z,2.20
2023-03-29T12:35:38.873Z,2.50
2023-03-29T12:41:15.280Z,2.60
2023-03-29T12:47:01.542Z,2.30
2023-03-29T12:52:17.688Z,2.60
2023-03-29T12:57:39.736Z,2.60
2023-03-29T13:02:45.910Z,3.10
2023-03-29T13:07:52.859Z,3.90
2023-03-29T13:13:08.447Z,3.30
2023-03-29T13:18:28.949Z,3.90
2023-03-29T13:23:45.905Z,3.20
2023-03-29T13:29:20.334Z,3.20
2023-03-29T13:34:37.814Z,7.30
2023-03-29T13:39:51.142Z,3.80
2023-03-29T13:45:13.370Z,3.70
2023-03-29T13:50:33.190Z,3.40
2023-03-29T13:55:47.543Z,2.80
2023-03-29T14:01:01.080Z,3.50
2023-03-29T14:06:10.722Z,3.10
2023-03-29T14:11:23.213Z,2.90
2023-03-29T14:16:31.760Z,2.40
2023-03-29T14:21:37.348Z,2.10
2023-03-29T14:26:46.992Z,2.40
2023-03-29T14:31:52.565Z,2.30
2023-03-29T14:36:58.431Z,2.00
2023-03-29T14:42:09.920Z,1.90
2023-03-29T14:52:25.452Z,2.00
2023-03-29T14:57:36.646Z,2.10
2023-03-29T15:07:56.356Z,1.90
2023-03-29T15:13:04.419Z,1.90
2023-03-29T15:18:14.897Z,2.30
2023-03-29T15:23:24.597Z,2.40
2023-03-29T15:28:32.721Z,3.00
2023-03-29T15:33:39.318Z,2.80
2023-03-29T15:38:49.435Z,2.70
2023-03-29T15:43:55.682Z,2.60
2023-03-29T15:49:01.598Z,2.80
2023-03-29T15:54:07.961Z,3.60
2023-03-29T15:59:14.204Z,3.20
2023-03-29T16:04:21.631Z,3.40
2023-03-29T16:09:29.469Z,2.90
2023-03-29T16:14:35.240Z,3.10
2023-03-29T16:19:41.485Z,4.60
2023-03-29T16:24:46.945Z,5.60
2023-03-29T16:29:52.420Z,4.60
2023-03-29T16:35:01.451Z,19.90
2023-03-29T16:40:21.007Z,52.30
2023-03-29T16:45:27.372Z,33.80
2023-03-29T16:50:33.165Z,30.40
2023-03-29T16:55:39.297Z,39.10
2023-03-29T17:00:48.579Z,25.80
2023-03-29T17:05:55.166Z,25.30
2023-03-29T17:11:01.616Z,29.10
2023-03-29T17:16:08.579Z,32.00
2023-03-29T17:21:14.099Z,38.00
2023-03-29T17:26:19.952Z,39.90
2023-03-29T17:31:26.018Z,39.70
2023-03-29T17:36:33.785Z,34.00
2023-03-29T17:41:39.696Z,30.00
2023-03-29T17:46:45.815Z,31.20
2023-03-29T17:51:52.406Z,30.00
2023-03-29T17:56:59.406Z,30.00
2023-03-29T18:02:06.384Z,33.70
2023-03-29T18:07:13.870Z,31.80
2023-03-29T18:12:21.088Z,34.30
2023-03-29T18:17:28.033Z,39.70
2023-03-29T18:22:34.781Z,42.60
2023-03-29T18:27:42.065Z,39.60
2023-03-29T18:32:48.363Z,48.40
2023-03-29T18:37:55.090Z,53.30
2023-03-29T18:43:10.289Z,52.80
2023-03-29T18:48:15.906Z,51.00
2023-03-29T18:53:22.008Z,51.80
2023-03-29T18:58:27.964Z,57.40
2023-03-29T19:03:35.076Z,66.80
2023-03-29T19:08:41.352Z,67.80
2023-03-29T19:13:50.641Z,66.80
2023-03-29T19:18:56.490Z,74.10
2023-03-29T19:24:05.050Z,79.50
2023-03-29T19:29:10.878Z,69.20
2023-03-29T19:34:19.809Z,56.90
2023-03-29T19:39:29.706Z,53.40
2023-03-29T19:44:39.048Z,72.00
2023-03-29T19:49:46.502Z,49.50
2023-03-29T19:54:52.351Z,53.40
2023-03-29T19:59:58.050Z,50.70
2023-03-29T20:05:04.440Z,51.60
2023-03-29T20:10:11.196Z,47.30
2023-03-29T20:15:16.919Z,49.40
2023-03-29T20:20:24.151Z,50.90
2023-03-29T20:25:29.739Z,47.80
2023-03-29T20:30:36.276Z,44.30
2023-03-29T20:35:43.948Z,31.10
2023-03-29T20:40:49.524Z,24.00
2023-03-29T20:45:55.508Z,23.90
2023-03-29T20:51:03.110Z,19.90
2023-03-29T20:56:08.962Z,20.50
2023-03-29T21:01:14.442Z,20.00
2023-03-29T21:06:20.426Z,20.30
2023-03-29T21:11:26.255Z,21.50
2023-03-29T21:16:33.007Z,21.40
2023-03-29T21:21:41.344Z,20.10
2023-03-29T21:26:46.930Z,18.70
2023-03-29T21:31:52.424Z,20.80
2023-03-29T21:36:58.188Z,20.90
2023-03-29T21:42:03.677Z,20.10
2023-03-29T21:47:09.111Z,18.90
2023-03-29T21:52:14.730Z,20.00
2023-03-29T21:57:20.500Z,20.40
2023-03-29T22:02:26.237Z,20.40
2023-03-29T22:07:35.271Z,22.60
2023-03-29T22:12:41.404Z,23.00
2023-03-29T22:17:47.012Z,22.80
2023-03-29T22:22:52.537Z,21.10
2023-03-29T22:27:58.293Z,20.90
2023-03-29T22:33:03.913Z,18.50
2023-03-29T22:38:09.627Z,19.30
2023-03-29T22:43:15.301Z,20.00
2023-03-29T22:48:21.095Z,20.10
2023-03-29T22:53:27.206Z,20.10
2023-03-29T22:58:32.640Z,21.20
2023-03-29T23:03:38.220Z,22.70
2023-03-29T23:08:43.583Z,23.80
2023-03-29T23:13:49.099Z,25.00
2023-03-29T23:18:54.568Z,25.30
2023-03-29T23:24:00.628Z,24.10
2023-03-29T23:29:06.180Z,24.10
2023-03-29T23:34:13.572Z,26.40
2023-03-29T23:39:19.248Z,22.70
2023-03-29T23:44:24.891Z,21.00
2023-03-29T23:49:31.849Z,21.80
2023-03-29T23:54:37.287Z,21.60
2023-03-29T23:59:42.684Z,21.10
